PWSweather.com
Personal Weather Stations
Station Observations
SBERGENWX
Wood Ridge, NJ 07075

Wood Ridge, NJ 07075

Lat: 40.851667, Lon: -74.088131

Elevation: 177

Station Type: Davis Vantage Vue

http://201weather.com/

High Low Average
Temperature 29.5°F-1.4°C 18.6°F-7.4°C 23.7°F-4.6°C
Dew Point 14.4°F-9.8°C 3.2°F-16.0°C 7.2°F-13.8°C
Winds 3.5 mph 5.6 kmh Calm Calm 1.0 mph NW1.6 kmh NW
Wind Gusts 11.5 mph18.5 kmh -- 3.0 mph4.8 kmh
Humidity 63% 35% 50%
Pressure 30.43 in1030.5 mb 29.98 in1015.2 mb -
Precipitation 0.01 in0.3 mm - -
Hour Temp Dew Point Humidity Winds Wind Gusts Pressure Precip Precip Rate Daily Precip Total
12:00 AM 26.6°F-3.0°C 14.2°F-9.9°C 59% 2.3 mph NNW3.7 kmh NNW 4.6 mph7.4 kmh 29.97 in1014.9 mb - 0.00 in0.0 mm 0.03 in0.8 mm
12:15 AM 26.5°F-3.1°C 14.5°F-9.7°C 60% 1.2 mph NW1.9 kmh NW 3.5 mph5.6 kmh 29.97 in1014.9 mb - 0.00 in0.0 mm 0.03 in0.8 mm
12:30 AM 26.3°F-3.2°C 14.7°F-9.6°C 61% 1.2 mph NNW1.9 kmh NNW 3.5 mph5.6 kmh 29.97 in1014.9 mb - 0.00 in0.0 mm 0.03 in0.8 mm
12:45 AM 26.2°F-3.2°C 14.6°F-9.7°C 61% 1.2 mph N1.9 kmh N 4.6 mph7.4 kmh 29.98 in1015.2 mb - 0.00 in0.0 mm 0.03 in0.8 mm
01:00 AM 26.3°F-3.2°C 14.3°F-9.8°C 60% 2.3 mph NW3.7 kmh NW 4.6 mph7.4 kmh 29.98 in1015.2 mb - 0.00 in0.0 mm 0.00 in0.0 mm
01:15 AM 26.2°F-3.2°C 13.8°F-10.1°C 59% 1.2 mph NW1.9 kmh NW 3.5 mph5.6 kmh 29.99 in1015.6 mb - 0.00 in0.0 mm 0.00 in0.0 mm
01:30 AM 26.1°F-3.3°C 14.1°F-9.9°C 60% 1.2 mph N1.9 kmh N 3.5 mph5.6 kmh 30.00 in1015.9 mb - 0.00 in0.0 mm 0.00 in0.0 mm
01:45 AM 25.8°F-3.4°C 14.2°F-9.9°C 61% 1.2 mph WNW1.9 kmh WNW 8.1 mph13.0 kmh 30.00 in1015.9 mb - 0.00 in0.0 mm 0.00 in0.0 mm
02:00 AM 25.6°F-3.6°C 14.4°F-9.8°C 62% Calm Calm 3.5 mph5.6 kmh 30.01 in1016.3 mb - 0.00 in0.0 mm 0.00 in0.0 mm
02:15 AM 25.4°F-3.7°C 13.8°F-10.1°C 61% 1.2 mph NW1.9 kmh NW 4.6 mph7.4 kmh 30.02 in1016.6 mb - 0.00 in0.0 mm 0.00 in0.0 mm
02:30 AM 25.0°F-3.9°C 13.4°F-10.3°C 61% Calm Calm 1.2 mph1.9 kmh 30.03 in1016.9 mb - 0.00 in0.0 mm 0.00 in0.0 mm
02:45 AM 24.6°F-4.1°C 13.1°F-10.5°C 61% Calm Calm -- 30.04 in1017.3 mb - 0.00 in0.0 mm 0.00 in0.0 mm
03:00 AM 24.2°F-4.3°C 12.7°F-10.7°C 61% 1.2 mph NW1.9 kmh NW 6.9 mph11.1 kmh 30.04 in1017.3 mb - 0.00 in0.0 mm 0.00 in0.0 mm
03:15 AM 24.2°F-4.3°C 11.9°F-11.2°C 59% 1.2 mph W1.9 kmh W 2.3 mph3.7 kmh 30.05 in1017.6 mb - 0.00 in0.0 mm 0.00 in0.0 mm
03:30 AM 24.1°F-4.4°C 11.8°F-11.2°C 59% 1.2 mph NW1.9 kmh NW 4.6 mph7.4 kmh 30.05 in1017.6 mb - 0.00 in0.0 mm 0.00 in0.0 mm
03:45 AM 23.9°F-4.5°C 12.0°F-11.1°C 60% 2.3 mph N3.7 kmh N 2.3 mph3.7 kmh 30.06 in1017.9 mb - 0.00 in0.0 mm 0.00 in0.0 mm
04:00 AM 23.7°F-4.6°C 12.2°F-11.0°C 61% Calm Calm 1.2 mph1.9 kmh 30.06 in1017.9 mb - 0.00 in0.0 mm 0.00 in0.0 mm
04:15 AM 23.3°F-4.8°C 12.2°F-11.0°C 62% 1.2 mph WNW1.9 kmh WNW 3.5 mph5.6 kmh 30.07 in1018.3 mb - 0.00 in0.0 mm 0.00 in0.0 mm
04:30 AM 23.2°F-4.9°C 12.5°F-10.8°C 63% Calm Calm 1.2 mph1.9 kmh 30.07 in1018.3 mb - 0.00 in0.0 mm 0.00 in0.0 mm
04:45 AM 23.3°F-4.8°C 12.2°F-11.0°C 62% Calm Calm 1.2 mph1.9 kmh 30.07 in1018.3 mb - 0.00 in0.0 mm 0.00 in0.0 mm
05:00 AM 22.9°F-5.1°C 12.2°F-11.0°C 63% 1.2 mph NW1.9 kmh NW 3.5 mph5.6 kmh 30.08 in1018.6 mb - 0.00 in0.0 mm 0.00 in0.0 mm
05:15 AM 22.9°F-5.1°C 12.2°F-11.0°C 63% 1.2 mph NW1.9 kmh NW 8.1 mph13.0 kmh 30.08 in1018.6 mb - 0.00 in0.0 mm 0.00 in0.0 mm
05:30 AM 22.8°F-5.1°C 11.7°F-11.3°C 62% 1.2 mph NW1.9 kmh NW 3.5 mph5.6 kmh 30.09 in1019.0 mb - 0.00 in0.0 mm 0.00 in0.0 mm
05:45 AM 22.7°F-5.2°C 11.6°F-11.3°C 62% 1.2 mph NW1.9 kmh NW 2.3 mph3.7 kmh 30.09 in1019.0 mb - 0.00 in0.0 mm 0.00 in0.0 mm
06:00 AM 22.5°F-5.3°C 11.5°F-11.4°C 62% Calm Calm 5.8 mph9.3 kmh 30.10 in1019.3 mb - 0.00 in0.0 mm 0.00 in0.0 mm
06:15 AM 22.3°F-5.4°C 11.2°F-11.6°C 62% 1.2 mph NW1.9 kmh NW 4.6 mph7.4 kmh 30.11 in1019.6 mb - 0.00 in0.0 mm 0.00 in0.0 mm
06:30 AM 21.7°F-5.7°C 10.3°F-12.1°C 61% 1.2 mph N1.9 kmh N 2.3 mph3.7 kmh 30.13 in1020.3 mb - 0.00 in0.0 mm 0.00 in0.0 mm
06:45 AM 21.1°F-6.1°C 9.3°F-12.6°C 60% Calm Calm -- 30.14 in1020.7 mb - 0.00 in0.0 mm 0.00 in0.0 mm
07:00 AM 20.5°F-6.4°C 8.8°F-12.9°C 60% 1.2 mph WSW1.9 kmh WSW 6.9 mph11.1 kmh 30.14 in1020.7 mb - 0.00 in0.0 mm 0.00 in0.0 mm
07:15 AM 20.0°F-6.7°C 8.7°F-12.9°C 61% Calm Calm 1.2 mph1.9 kmh 30.15 in1021.0 mb - 0.00 in0.0 mm 0.00 in0.0 mm
07:30 AM 19.6°F-6.9°C 8.0°F-13.3°C 60% 1.2 mph NNW1.9 kmh NNW 5.8 mph9.3 kmh 30.16 in1021.3 mb - 0.00 in0.0 mm 0.00 in0.0 mm
07:45 AM 19.2°F-7.1°C 6.8°F-14.0°C 58% 1.2 mph N1.9 kmh N 5.8 mph9.3 kmh 30.16 in1021.3 mb - 0.00 in0.0 mm 0.00 in0.0 mm
08:00 AM 19.0°F-7.2°C 6.3°F-14.3°C 57% Calm Calm 2.3 mph3.7 kmh 30.17 in1021.7 mb - 0.00 in0.0 mm 0.00 in0.0 mm
08:15 AM 18.8°F-7.3°C 6.4°F-14.2°C 58% Calm Calm 1.2 mph1.9 kmh 30.17 in1021.7 mb - 0.00 in0.0 mm 0.00 in0.0 mm
08:30 AM 18.6°F-7.4°C 6.6°F-14.1°C 59% 1.2 mph WNW1.9 kmh WNW 3.5 mph5.6 kmh 30.18 in1022.0 mb - 0.00 in0.0 mm 0.00 in0.0 mm
08:45 AM 18.7°F-7.4°C 6.4°F-14.2°C 58% 1.2 mph W1.9 kmh W 4.6 mph7.4 kmh 30.19 in1022.4 mb - 0.00 in0.0 mm 0.00 in0.0 mm
09:00 AM 18.8°F-7.3°C 6.4°F-14.2°C 58% 3.5 mph WNW5.6 kmh WNW 5.8 mph9.3 kmh 30.20 in1022.7 mb - 0.00 in0.0 mm 0.00 in0.0 mm
09:15 AM 19.2°F-7.1°C 6.8°F-14.0°C 58% 1.2 mph NW1.9 kmh NW 2.3 mph3.7 kmh 30.20 in1022.7 mb - 0.00 in0.0 mm 0.00 in0.0 mm
09:30 AM 19.9°F-6.7°C 7.1°F-13.8°C 57% 1.2 mph N1.9 kmh N 3.5 mph5.6 kmh 30.21 in1023.0 mb - 0.00 in0.0 mm 0.00 in0.0 mm
09:45 AM 20.2°F-6.6°C 7.0°F-13.9°C 56% 1.2 mph NW1.9 kmh NW 5.8 mph9.3 kmh 30.22 in1023.4 mb - 0.00 in0.0 mm 0.00 in0.0 mm
10:00 AM 20.8°F-6.2°C 7.2°F-13.8°C 55% 1.2 mph NW1.9 kmh NW 2.3 mph3.7 kmh 30.22 in1023.4 mb - 0.00 in0.0 mm 0.00 in0.0 mm
10:15 AM 21.4°F-5.9°C 7.3°F-13.7°C 54% 1.2 mph NW1.9 kmh NW 1.2 mph1.9 kmh 30.23 in1023.7 mb - 0.00 in0.0 mm 0.00 in0.0 mm
10:30 AM 22.2°F-5.4°C 7.2°F-13.8°C 52% 1.2 mph NW1.9 kmh NW 5.8 mph9.3 kmh 30.24 in1024.0 mb - 0.00 in0.0 mm 0.00 in0.0 mm
10:45 AM 22.8°F-5.1°C 7.4°F-13.7°C 51% 2.3 mph NW3.7 kmh NW 6.9 mph11.1 kmh 30.25 in1024.4 mb - 0.00 in0.0 mm 0.00 in0.0 mm
11:00 AM 23.0°F-5.0°C 7.1°F-13.8°C 50% 1.2 mph NW1.9 kmh NW 4.6 mph7.4 kmh 30.25 in1024.4 mb - 0.00 in0.0 mm 0.00 in0.0 mm
11:15 AM 24.2°F-4.3°C 7.7°F-13.5°C 49% 1.2 mph NNW1.9 kmh NNW 2.3 mph3.7 kmh 30.25 in1024.4 mb - 0.00 in0.0 mm 0.00 in0.0 mm
11:30 AM 24.1°F-4.4°C 7.2°F-13.8°C 48% Calm Calm 2.3 mph3.7 kmh 30.25 in1024.4 mb - 0.00 in0.0 mm 0.00 in0.0 mm
11:45 AM 24.6°F-4.1°C 7.2°F-13.8°C 47% 2.3 mph WNW3.7 kmh WNW 3.5 mph5.6 kmh 30.25 in1024.4 mb - 0.00 in0.0 mm 0.00 in0.0 mm
12:00 PM 25.2°F-3.8°C 6.8°F-14.0°C 45% 2.3 mph NW3.7 kmh NW 3.5 mph5.6 kmh 30.25 in1024.4 mb - 0.00 in0.0 mm 0.00 in0.0 mm
12:15 PM 25.3°F-3.7°C 6.4°F-14.2°C 44% 1.2 mph NW1.9 kmh NW 4.6 mph7.4 kmh 30.25 in1024.4 mb - 0.00 in0.0 mm 0.00 in0.0 mm
12:30 PM 25.5°F-3.6°C 6.6°F-14.1°C 44% 1.2 mph NW1.9 kmh NW 1.2 mph1.9 kmh 30.24 in1024.0 mb - 0.00 in0.0 mm 0.00 in0.0 mm
12:45 PM 26.3°F-3.2°C 6.8°F-14.0°C 43% 2.3 mph NW3.7 kmh NW 4.6 mph7.4 kmh 30.23 in1023.7 mb - 0.00 in0.0 mm 0.00 in0.0 mm
01:00 PM 26.3°F-3.2°C 6.3°F-14.3°C 42% 2.3 mph N3.7 kmh N 1.2 mph1.9 kmh 30.23 in1023.7 mb - 0.00 in0.0 mm 0.00 in0.0 mm
01:15 PM 27.4°F-2.6°C 6.8°F-14.0°C 41% 1.2 mph NW1.9 kmh NW 3.5 mph5.6 kmh 30.23 in1023.7 mb - 0.00 in0.0 mm 0.00 in0.0 mm
01:30 PM 27.4°F-2.6°C 5.7°F-14.6°C 39% 3.5 mph NW5.6 kmh NW 11.5 mph18.5 kmh 30.23 in1023.7 mb - 0.00 in0.0 mm 0.00 in0.0 mm
01:45 PM 27.7°F-2.4°C 5.4°F-14.8°C 38% 3.5 mph NW5.6 kmh NW 5.8 mph9.3 kmh 30.23 in1023.7 mb - 0.00 in0.0 mm 0.00 in0.0 mm
02:00 PM 27.8°F-2.3°C 6.0°F-14.4°C 39% 2.3 mph NW3.7 kmh NW 6.9 mph11.1 kmh 30.23 in1023.7 mb - 0.00 in0.0 mm 0.00 in0.0 mm
02:15 PM 28.5°F-1.9°C 4.9°F-15.1°C 36% 3.5 mph NW5.6 kmh NW 8.1 mph13.0 kmh 30.23 in1023.7 mb - 0.00 in0.0 mm 0.00 in0.0 mm
02:30 PM 28.5°F-1.9°C 4.3°F-15.4°C 35% 2.3 mph NNW3.7 kmh NNW 6.9 mph11.1 kmh 30.23 in1023.7 mb - 0.00 in0.0 mm 0.00 in0.0 mm
02:45 PM 29.0°F-1.7°C 4.7°F-15.2°C 35% 1.2 mph NW1.9 kmh NW 2.3 mph3.7 kmh 30.23 in1023.7 mb - 0.00 in0.0 mm 0.00 in0.0 mm
03:00 PM 29.5°F-1.4°C 5.8°F-14.6°C 36% 2.3 mph NW3.7 kmh NW 6.9 mph11.1 kmh 30.24 in1024.0 mb - 0.00 in0.0 mm 0.00 in0.0 mm
03:15 PM 29.3°F-1.5°C 5.0°F-15.0°C 35% 3.5 mph NW5.6 kmh NW 11.5 mph18.5 kmh 30.24 in1024.0 mb - 0.00 in0.0 mm 0.00 in0.0 mm
03:30 PM 28.8°F-1.8°C 4.5°F-15.3°C 35% 1.2 mph NW1.9 kmh NW 5.8 mph9.3 kmh 30.25 in1024.4 mb - 0.00 in0.0 mm 0.00 in0.0 mm
03:45 PM 29.2°F-1.6°C 4.9°F-15.1°C 35% 2.3 mph NNW3.7 kmh NNW 5.8 mph9.3 kmh 30.25 in1024.4 mb - 0.00 in0.0 mm 0.00 in0.0 mm
04:00 PM 29.1°F-1.6°C 4.8°F-15.1°C 35% 1.2 mph NNW1.9 kmh NNW 9.2 mph14.8 kmh 30.25 in1024.4 mb - 0.00 in0.0 mm 0.00 in0.0 mm
04:15 PM 28.8°F-1.8°C 4.5°F-15.3°C 35% 1.2 mph NNW1.9 kmh NNW 3.5 mph5.6 kmh 30.25 in1024.4 mb - 0.00 in0.0 mm 0.00 in0.0 mm
04:30 PM 28.3°F-2.1°C 4.1°F-15.5°C 35% 1.2 mph NW1.9 kmh NW 3.5 mph5.6 kmh 30.26 in1024.7 mb - 0.00 in0.0 mm 0.00 in0.0 mm
04:45 PM 27.8°F-2.3°C 3.6°F-15.8°C 35% 2.3 mph NW3.7 kmh NW 4.6 mph7.4 kmh 30.27 in1025.1 mb - 0.01 in0.3 mm 0.01 in0.3 mm
05:00 PM 27.6°F-2.4°C 4.1°F-15.5°C 36% Calm Calm 3.5 mph5.6 kmh 30.27 in1025.1 mb - 0.01 in0.3 mm 0.01 in0.3 mm
05:15 PM 27.4°F-2.6°C 3.3°F-15.9°C 35% Calm Calm -- 30.28 in1025.4 mb - 0.01 in0.3 mm 0.01 in0.3 mm
05:30 PM 26.7°F-2.9°C 3.3°F-15.9°C 36% Calm Calm 5.8 mph9.3 kmh 30.29 in1025.7 mb - 0.01 in0.3 mm 0.01 in0.3 mm
05:45 PM 26.3°F-3.2°C 3.5°F-15.8°C 37% Calm Calm -- 30.30 in1026.1 mb - 0.00 in0.0 mm 0.01 in0.3 mm
06:00 PM 26.0°F-3.3°C 3.2°F-16.0°C 37% Calm Calm -- 30.30 in1026.1 mb - 0.00 in0.0 mm 0.01 in0.3 mm
06:15 PM 25.7°F-3.5°C 3.6°F-15.8°C 38% 1.2 mph NW1.9 kmh NW 4.6 mph7.4 kmh 30.30 in1026.1 mb - 0.00 in0.0 mm 0.01 in0.3 mm
06:30 PM 25.3°F-3.7°C 3.8°F-15.7°C 39% 1.2 mph NW1.9 kmh NW 8.1 mph13.0 kmh 30.31 in1026.4 mb - 0.00 in0.0 mm 0.01 in0.3 mm
06:45 PM 25.0°F-3.9°C 4.6°F-15.2°C 41% Calm Calm -- 30.32 in1026.8 mb - 0.00 in0.0 mm 0.01 in0.3 mm
07:00 PM 24.5°F-4.2°C 5.2°F-14.9°C 43% Calm Calm -- 30.32 in1026.8 mb - 0.00 in0.0 mm 0.01 in0.3 mm
07:15 PM 24.0°F-4.4°C 5.2°F-14.9°C 44% Calm Calm -- 30.33 in1027.1 mb - 0.00 in0.0 mm 0.01 in0.3 mm
07:30 PM 23.7°F-4.6°C 5.4°F-14.8°C 45% Calm Calm 3.5 mph5.6 kmh 30.33 in1027.1 mb - 0.00 in0.0 mm 0.01 in0.3 mm
07:45 PM 23.4°F-4.8°C 5.2°F-14.9°C 45% Calm Calm 1.2 mph1.9 kmh 30.34 in1027.4 mb - 0.00 in0.0 mm 0.01 in0.3 mm
08:00 PM 23.2°F-4.9°C 5.0°F-15.0°C 45% Calm Calm 4.6 mph7.4 kmh 30.35 in1027.8 mb - 0.00 in0.0 mm 0.01 in0.3 mm
08:15 PM 23.0°F-5.0°C 5.3°F-14.8°C 46% Calm Calm -- 30.36 in1028.1 mb - 0.00 in0.0 mm 0.01 in0.3 mm
08:30 PM 22.7°F-5.2°C 5.0°F-15.0°C 46% Calm Calm 1.2 mph1.9 kmh 30.35 in1027.8 mb - 0.00 in0.0 mm 0.01 in0.3 mm
08:45 PM 22.4°F-5.3°C 5.2°F-14.9°C 47% Calm Calm -- 30.36 in1028.1 mb - 0.00 in0.0 mm 0.01 in0.3 mm
09:00 PM 22.4°F-5.3°C 5.2°F-14.9°C 47% Calm Calm 1.2 mph1.9 kmh 30.37 in1028.4 mb - 0.00 in0.0 mm 0.01 in0.3 mm
09:15 PM 22.1°F-5.5°C 4.9°F-15.1°C 47% Calm Calm -- 30.38 in1028.8 mb - 0.00 in0.0 mm 0.01 in0.3 mm
09:30 PM 22.0°F-5.6°C 4.8°F-15.1°C 47% Calm Calm -- 30.38 in1028.8 mb - 0.00 in0.0 mm 0.01 in0.3 mm
09:45 PM 21.9°F-5.6°C 4.7°F-15.2°C 47% Calm Calm -- 30.39 in1029.1 mb - 0.00 in0.0 mm 0.01 in0.3 mm
10:00 PM 21.6°F-5.8°C 4.9°F-15.1°C 48% Calm Calm -- 30.39 in1029.1 mb - 0.00 in0.0 mm 0.01 in0.3 mm
10:15 PM 21.3°F-5.9°C 4.6°F-15.2°C 48% Calm Calm -- 30.40 in1029.5 mb - 0.00 in0.0 mm 0.01 in0.3 mm
10:30 PM 21.1°F-6.1°C 4.4°F-15.3°C 48% Calm Calm -- 30.40 in1029.5 mb - 0.00 in0.0 mm 0.01 in0.3 mm
10:45 PM 20.8°F-6.2°C 4.6°F-15.2°C 49% Calm Calm -- 30.41 in1029.8 mb - 0.00 in0.0 mm 0.01 in0.3 mm
11:00 PM 20.8°F-6.2°C 4.2°F-15.4°C 48% Calm Calm -- 30.41 in1029.8 mb - 0.00 in0.0 mm 0.01 in0.3 mm
11:15 PM 20.5°F-6.4°C 3.9°F-15.6°C 48% Calm Calm -- 30.41 in1029.8 mb - 0.00 in0.0 mm 0.01 in0.3 mm
11:30 PM 20.1°F-6.6°C 4.4°F-15.3°C 50% Calm Calm -- 30.42 in1030.1 mb - 0.00 in0.0 mm 0.01 in0.3 mm
11:45 PM 20.1°F-6.6°C 4.0°F-15.6°C 49% 1.2 mph WNW1.9 kmh WNW 2.3 mph3.7 kmh 30.43 in1030.5 mb - 0.00 in0.0 mm 0.01 in0.3 mm